Time,TemperatureF,DewpointF,PressureIn,WindDirection,WindDirectionDegrees,WindSpeedMPH,WindSpeedGustMPH,Humidity,HourlyPrecipIn,Conditions,Clouds,dailyrainin,SoftwareType,DateUTC
2013-08-12 00:01:00,57.2,55.2,30.01,North,5,0.0,0.0,93,0.00,,CLR,0.00,VWS V14.00,2013-08-12 04:01:00,
2013-08-12 00:02:00,57.2,55.2,30.01,North,5,0.0,0.0,93,0.00,,CLR,0.00,VWS V14.00,2013-08-12 04:02:00,
2013-08-12 00:03:00,57.2,55.2,30.01,North,5,0.0,0.0,93,0.00,,CLR,0.00,VWS V14.00,2013-08-12 04:03:00,
2013-08-12 00:05:00,57.2,55.2,30.01,North,5,0.0,0.0,93,0.00,,CLR,0.00,VWS V14.00,2013-08-12 04:05:00,
2013-08-12 00:06:00,57.1,55.1,30.01,North,5,0.0,0.0,93,0.00,,CLR,0.00,VWS V14.00,2013-08-12 04:06:00,
2013-08-12 00:11:00,57.1,55.4,30.01,North,5,0.0,0.0,94,0.00,,CLR,0.00,VWS V14.00,2013-08-12 04:11:00,
2013-08-12 00:16:00,57.7,56.6,30.01,North,5,0.0,1.0,96,0.00,,CLR,0.00,VWS V14.00,2013-08-12 04:16:00,
2013-08-12 00:21:00,57.8,56.4,30.01,North,5,0.0,1.0,95,0.00,,CLR,0.00,VWS V14.00,2013-08-12 04:21:00,
2013-08-12 00:26:00,57.4,55.7,30.01,North,5,0.0,1.0,94,0.00,,CLR,0.00,VWS V14.00,2013-08-12 04:26:00,
2013-08-12 00:31:00,57.1,55.4,30.01,North,5,0.0,1.0,94,0.00,,CLR,0.00,VWS V14.00,2013-08-12 04:31:00,
2013-08-12 00:36:00,57.3,56.2,30.01,North,5,0.0,3.0,96,0.00,,CLR,0.00,VWS V14.00,2013-08-12 04:36:00,
2013-08-12 00:41:00,57.4,56.0,30.02,North,5,0.0,3.0,95,0.00,,CLR,0.00,VWS V14.00,2013-08-12 04:41:00,
2013-08-12 00:46:00,57.3,55.6,30.02,North,5,0.0,3.0,94,0.00,,CLR,0.00,VWS V14.00,2013-08-12 04:46:00,
2013-08-12 00:51:00,57.3,55.6,30.01,North,5,0.0,3.0,94,0.00,,CLR,0.00,VWS V14.00,2013-08-12 04:51:00,
2013-08-12 00:56:00,57.2,55.5,30.01,North,5,0.0,3.0,94,0.00,,CLR,0.00,VWS V14.00,2013-08-12 04:56:00,
2013-08-12 01:01:00,57.0,55.0,30.01,North,5,0.0,3.0,93,0.00,,CLR,0.00,VWS V14.00,2013-08-12 05:01:00,
2013-08-12 01:06:00,56.8,55.1,30.01,North,5,0.0,0.0,94,0.00,,SCT065,0.00,VWS V14.00,2013-08-12 05:06:00,
2013-08-12 01:11:00,56.6,54.9,30.01,North,5,0.0,0.0,94,0.00,,SCT065,0.00,VWS V14.00,2013-08-12 05:11:00,
2013-08-12 01:16:00,56.5,54.8,30.01,North,5,0.0,0.0,94,0.00,,SCT065,0.00,VWS V14.00,2013-08-12 05:16:00,
2013-08-12 01:21:00,56.4,54.7,30.01,North,5,0.0,0.0,94,0.00,,SCT065,0.00,VWS V14.00,2013-08-12 05:21:00,
2013-08-12 01:26:00,56.2,54.5,30.01,North,5,0.0,0.0,94,0.00,,SCT065,0.00,VWS V14.00,2013-08-12 05:26:00,
2013-08-12 01:31:00,56.1,54.4,30.01,North,5,0.0,0.0,94,0.00,,SCT065,0.00,VWS V14.00,2013-08-12 05:31:00,
2013-08-12 01:36:00,56.0,54.6,30.01,North,5,0.0,0.0,95,0.00,,SCT065,0.00,VWS V14.00,2013-08-12 05:36:00,
2013-08-12 01:41:00,55.9,54.5,30.01,North,5,0.0,0.0,95,0.00,,SCT065,0.00,VWS V14.00,2013-08-12 05:41:00,
2013-08-12 01:46:00,55.8,54.4,30.01,North,5,0.0,0.0,95,0.00,,SCT065,0.00,VWS V14.00,2013-08-12 05:46:00,
2013-08-12 01:51:00,55.8,54.4,30.00,North,5,0.0,0.0,95,0.00,,SCT065,0.00,VWS V14.00,2013-08-12 05:51:00,
2013-08-12 01:56:00,55.7,54.3,30.00,North,5,0.0,0.0,95,0.00,,SCT065,0.00,VWS V14.00,2013-08-12 05:56:00,
2013-08-12 02:01:00,55.6,54.2,30.00,North,5,0.0,0.0,95,0.00,,SCT065,0.00,VWS V14.00,2013-08-12 06:01:00,
2013-08-12 02:07:00,55.6,54.2,30.01,North,5,0.0,0.0,95,0.00,,SCT065,0.00,VWS V14.00,2013-08-12 06:07:00,
2013-08-12 02:12:00,55.5,54.1,30.00,North,5,0.0,0.0,95,0.00,,CLR,0.00,VWS V14.00,2013-08-12 06:12:00,
2013-08-12 02:17:00,55.5,54.4,30.00,North,5,0.0,0.0,96,0.00,,CLR,0.00,VWS V14.00,2013-08-12 06:17:00,
2013-08-12 02:22:00,55.7,54.6,30.00,North,5,0.0,0.0,96,0.00,,CLR,0.00,VWS V14.00,2013-08-12 06:22:00,
2013-08-12 02:27:00,55.6,54.5,30.00,North,5,0.0,0.0,96,0.00,,CLR,0.00,VWS V14.00,2013-08-12 06:27:00,
2013-08-12 02:32:00,55.5,54.4,30.00,North,5,0.0,0.0,96,0.00,,CLR,0.00,VWS V14.00,2013-08-12 06:32:00,
2013-08-12 02:37:00,55.5,54.4,30.00,North,5,0.0,0.0,96,0.00,,CLR,0.00,VWS V14.00,2013-08-12 06:37:00,
2013-08-12 02:42:00,55.6,54.5,30.00,North,5,0.0,0.0,96,0.00,,CLR,0.00,VWS V14.00,2013-08-12 06:42:00,
2013-08-12 02:47:00,55.6,54.5,30.00,North,5,0.0,0.0,96,0.00,,CLR,0.00,VWS V14.00,2013-08-12 06:47:00,
2013-08-12 02:52:00,55.5,54.4,30.00,North,5,0.0,0.0,96,0.00,,CLR,0.00,VWS V14.00,2013-08-12 06:52:00,
2013-08-12 02:57:00,55.4,54.3,30.00,North,5,0.0,0.0,96,0.00,,CLR,0.00,VWS V14.00,2013-08-12 06:57:00,
2013-08-12 03:02:00,55.3,54.2,29.99,North,5,0.0,0.0,96,0.00,,CLR,0.00,VWS V14.00,2013-08-12 07:02:00,
2013-08-12 03:07:00,55.3,54.2,29.99,North,5,0.0,0.0,96,0.00,,CLR,0.00,VWS V14.00,2013-08-12 07:07:00,
2013-08-12 03:12:00,55.3,54.2,29.99,North,5,0.0,0.0,96,0.00,,CLR,0.00,VWS V14.00,2013-08-12 07:12:00,
2013-08-12 03:18:00,55.3,54.2,29.99,North,5,0.0,0.0,96,0.00,,CLR,0.00,VWS V14.00,2013-08-12 07:18:00,
2013-08-12 03:23:00,55.3,54.2,29.99,North,5,0.0,0.0,96,0.00,,CLR,0.00,VWS V14.00,2013-08-12 07:23:00,
2013-08-12 03:28:00,55.3,54.2,29.99,North,5,0.0,0.0,96,0.00,,CLR,0.00,VWS V14.00,2013-08-12 07:28:00,
2013-08-12 03:33:00,55.2,54.1,29.99,North,5,0.0,0.0,96,0.00,,CLR,0.00,VWS V14.00,2013-08-12 07:33:00,
2013-08-12 03:38:00,55.1,53.7,30.00,North,5,0.0,0.0,95,0.00,,CLR,0.00,VWS V14.00,2013-08-12 07:38:00,
2013-08-12 03:43:00,55.1,54.0,29.99,North,5,0.0,0.0,96,0.00,,CLR,0.00,VWS V14.00,2013-08-12 07:43:00,
2013-08-12 03:48:00,55.2,54.1,29.99,North,5,0.0,0.0,96,0.00,,CLR,0.00,VWS V14.00,2013-08-12 07:48:00,
2013-08-12 03:53:00,55.3,54.2,29.99,North,5,0.0,0.0,96,0.00,,CLR,0.00,VWS V14.00,2013-08-12 07:53:00,
2013-08-12 03:58:00,55.6,54.8,30.00,North,5,0.0,1.0,97,0.00,,CLR,0.00,VWS V14.00,2013-08-12 07:58:00,
2013-08-12 04:03:00,56.0,55.2,30.00,North,5,0.0,0.0,97,0.00,,CLR,0.00,VWS V14.00,2013-08-12 08:03:00,
2013-08-12 04:08:00,55.8,54.7,29.99,North,5,0.0,0.0,96,0.00,,CLR,0.00,VWS V14.00,2013-08-12 08:08:00,
2013-08-12 04:13:00,55.7,54.6,29.99,North,5,0.0,0.0,96,0.00,,CLR,0.00,VWS V14.00,2013-08-12 08:13:00,
2013-08-12 04:18:00,55.5,54.4,29.99,North,5,0.0,0.0,96,0.00,,CLR,0.00,VWS V14.00,2013-08-12 08:18:00,
2013-08-12 04:23:00,55.4,54.3,29.99,North,5,0.0,0.0,96,0.00,,CLR,0.00,VWS V14.00,2013-08-12 08:23:00,
2013-08-12 04:28:00,55.4,54.3,29.99,North,5,0.0,0.0,96,0.00,,CLR,0.00,VWS V14.00,2013-08-12 08:28:00,
2013-08-12 04:33:00,55.5,54.4,29.99,North,5,0.0,0.0,96,0.00,,CLR,0.00,VWS V14.00,2013-08-12 08:33:00,
2013-08-12 04:38:00,55.4,54.3,29.99,North,5,0.0,0.0,96,0.00,,CLR,0.00,VWS V14.00,2013-08-12 08:38:00,
2013-08-12 04:43:00,55.3,54.2,29.99,North,5,0.0,0.0,96,0.00,,CLR,0.00,VWS V14.00,2013-08-12 08:43:00,
2013-08-12 04:48:00,56.1,55.3,30.00,North,5,3.0,4.0,97,0.00,,CLR,0.00,VWS V14.00,2013-08-12 08:48:00,
2013-08-12 04:53:00,56.7,56.1,30.00,North,5,2.0,4.0,98,0.00,,CLR,0.00,VWS V14.00,2013-08-12 08:53:00,
2013-08-12 04:58:00,56.6,55.8,30.00,North,5,0.0,4.0,97,0.00,,CLR,0.00,VWS V14.00,2013-08-12 08:58:00,
2013-08-12 05:03:00,56.4,55.3,30.00,North,5,0.0,0.0,96,0.00,,CLR,0.00,VWS V14.00,2013-08-12 09:03:00,
2013-08-12 05:08:00,56.3,55.2,30.00,North,5,0.0,0.0,96,0.00,,CLR,0.00,VWS V14.00,2013-08-12 09:08:00,
2013-08-12 05:13:00,56.2,55.1,30.00,North,5,0.0,0.0,96,0.00,,CLR,0.00,VWS V14.00,2013-08-12 09:13:00,
2013-08-12 05:18:00,56.1,55.0,30.00,North,5,0.0,0.0,96,0.00,,CLR,0.00,VWS V14.00,2013-08-12 09:18:00,
2013-08-12 05:23:00,56.2,55.1,30.00,North,5,0.0,0.0,96,0.00,,CLR,0.00,VWS V14.00,2013-08-12 09:23:00,
2013-08-12 05:29:00,56.0,54.9,29.99,North,5,0.0,0.0,96,0.00,,CLR,0.00,VWS V14.00,2013-08-12 09:29:00,
2013-08-12 05:34:00,55.8,54.4,29.99,North,5,0.0,0.0,95,0.00,,CLR,0.00,VWS V14.00,2013-08-12 09:34:00,
2013-08-12 05:39:00,55.6,54.2,30.00,North,5,0.0,0.0,95,0.00,,CLR,0.00,VWS V14.00,2013-08-12 09:39:00,
2013-08-12 05:44:00,55.5,54.4,30.00,North,5,0.0,0.0,96,0.00,,CLR,0.00,VWS V14.00,2013-08-12 09:44:00,
2013-08-12 05:49:00,55.4,54.3,30.00,North,5,0.0,1.0,96,0.00,,CLR,0.00,VWS V14.00,2013-08-12 09:49:00,
2013-08-12 05:54:00,55.7,54.6,30.00,North,5,0.0,2.0,96,0.00,,CLR,0.00,VWS V14.00,2013-08-12 09:54:00,
2013-08-12 05:59:00,56.2,55.4,30.00,North,5,0.0,2.0,97,0.00,,CLR,0.00,VWS V14.00,2013-08-12 09:59:00,
2013-08-12 06:04:00,56.4,55.3,30.00,North,5,0.0,0.0,96,0.00,,CLR,0.00,VWS V14.00,2013-08-12 10:04:00,
2013-08-12 06:09:00,56.5,55.4,30.00,North,5,0.0,0.0,96,0.00,,CLR,0.00,VWS V14.00,2013-08-12 10:09:00,
2013-08-12 06:14:00,56.7,55.6,30.00,North,5,1.0,2.0,96,0.00,,CLR,0.00,VWS V14.00,2013-08-12 10:14:00,
2013-08-12 06:19:00,56.6,55.5,30.00,North,5,0.0,2.0,96,0.00,,CLR,0.00,VWS V14.00,2013-08-12 10:19:00,
2013-08-12 06:24:00,56.3,54.6,30.00,North,5,0.0,2.0,94,0.00,,CLR,0.00,VWS V14.00,2013-08-12 10:24:00,
2013-08-12 06:29:00,56.0,54.3,30.00,North,5,0.0,2.0,94,0.00,,CLR,0.00,VWS V14.00,2013-08-12 10:29:00,
2013-08-12 06:34:00,55.9,54.5,30.00,North,5,0.0,0.0,95,0.00,,CLR,0.00,VWS V14.00,2013-08-12 10:34:00,
2013-08-12 06:39:00,56.2,55.1,30.00,North,5,0.0,0.0,96,0.00,,CLR,0.00,VWS V14.00,2013-08-12 10:39:00,
2013-08-12 06:44:00,56.1,55.0,30.00,North,5,0.0,0.0,96,0.00,,CLR,0.00,VWS V14.00,2013-08-12 10:44:00,
2013-08-12 06:49:00,56.0,54.9,30.00,North,5,0.0,2.0,96,0.00,,CLR,0.00,VWS V14.00,2013-08-12 10:49:00,
2013-08-12 06:54:00,56.3,55.5,30.00,North,5,0.0,2.0,97,0.00,,CLR,0.00,VWS V14.00,2013-08-12 10:54:00,
2013-08-12 06:59:00,56.4,55.3,30.00,North,5,0.0,2.0,96,0.00,,CLR,0.00,VWS V14.00,2013-08-12 10:59:00,
2013-08-12 07:04:00,56.3,55.2,30.00,North,5,0.0,0.0,96,0.00,,CLR,0.00,VWS V14.00,2013-08-12 11:04:00,
2013-08-12 07:09:00,56.3,55.2,30.00,North,5,0.0,0.0,96,0.00,,CLR,0.00,VWS V14.00,2013-08-12 11:09:00,
2013-08-12 07:14:00,56.6,55.5,30.00,North,5,0.0,2.0,96,0.00,,CLR,0.00,VWS V14.00,2013-08-12 11:14:00,
2013-08-12 07:19:00,57.0,55.6,30.00,North,5,0.0,2.0,95,0.00,,CLR,0.00,VWS V14.00,2013-08-12 11:19:00,
2013-08-12 07:24:00,57.3,55.9,30.00,North,5,0.0,2.0,95,0.00,,CLR,0.00,VWS V14.00,2013-08-12 11:24:00,
2013-08-12 07:29:00,57.4,55.7,30.01,North,5,0.0,2.0,94,0.00,,CLR,0.00,VWS V14.00,2013-08-12 11:29:00,
2013-08-12 07:34:00,57.5,55.8,30.00,North,5,0.0,0.0,94,0.00,,CLR,0.00,VWS V14.00,2013-08-12 11:34:00,
2013-08-12 07:39:00,57.9,56.2,30.01,North,5,0.0,1.0,94,0.00,,CLR,0.00,VWS V14.00,2013-08-12 11:39:00,
2013-08-12 07:44:00,58.2,56.2,30.01,North,5,0.0,1.0,93,0.00,,CLR,0.00,VWS V14.00,2013-08-12 11:44:00,
2013-08-12 07:50:00,58.3,56.3,30.01,North,5,0.0,1.0,93,0.00,,CLR,0.00,VWS V14.00,2013-08-12 11:50:00,
2013-08-12 07:55:00,58.5,56.5,30.01,North,5,0.0,1.0,93,0.00,,CLR,0.00,VWS V14.00,2013-08-12 11:55:00,
2013-08-12 08:00:00,58.7,56.7,30.01,North,5,0.0,1.0,93,0.00,,CLR,0.00,VWS V14.00,2013-08-12 12:00:00,
2013-08-12 08:05:00,58.8,56.8,30.00,North,5,0.0,0.0,93,0.00,,CLR,0.00,VWS V14.00,2013-08-12 12:05:00,
2013-08-12 08:10:00,58.9,56.9,30.00,North,5,0.0,0.0,93,0.00,,CLR,0.00,VWS V14.00,2013-08-12 12:10:00,
2013-08-12 08:15:00,59.1,57.1,30.00,North,5,0.0,0.0,93,0.00,,CLR,0.00,VWS V14.00,2013-08-12 12:15:00,
2013-08-12 08:20:00,59.3,57.0,30.00,North,5,0.0,0.0,92,0.00,,CLR,0.00,VWS V14.00,2013-08-12 12:20:00,
2013-08-12 08:25:00,59.6,57.0,30.00,North,5,0.0,0.0,91,0.00,,CLR,0.00,VWS V14.00,2013-08-12 12:25:00,
2013-08-12 08:30:00,60.1,57.5,30.00,North,5,0.0,0.0,91,0.00,,CLR,0.00,VWS V14.00,2013-08-12 12:30:00,
2013-08-12 08:35:00,60.4,57.2,30.00,North,5,0.0,0.0,89,0.00,,CLR,0.00,VWS V14.00,2013-08-12 12:35:00,
2013-08-12 08:40:00,60.8,57.2,30.00,North,5,0.0,0.0,88,0.00,,CLR,0.00,VWS V14.00,2013-08-12 12:40:00,
2013-08-12 08:45:00,61.2,57.3,30.00,North,5,0.0,0.0,87,0.00,,CLR,0.00,VWS V14.00,2013-08-12 12:45:00,
2013-08-12 08:50:00,61.6,57.4,30.00,North,5,0.0,1.0,86,0.00,,CLR,0.00,VWS V14.00,2013-08-12 12:50:00,
2013-08-12 08:55:00,62.1,57.9,30.00,North,5,0.0,1.0,86,0.00,,CLR,0.00,VWS V14.00,2013-08-12 12:55:00,
2013-08-12 09:00:00,62.5,58.3,30.00,North,5,0.0,1.0,86,0.00,,CLR,0.00,VWS V14.00,2013-08-12 13:00:00,
2013-08-12 09:05:00,62.9,58.7,29.99,North,5,0.0,0.0,86,0.00,,CLR,0.00,VWS V14.00,2013-08-12 13:05:00,
2013-08-12 09:10:00,63.1,58.5,29.99,North,5,0.0,0.0,85,0.00,,CLR,0.00,VWS V14.00,2013-08-12 13:10:00,
2013-08-12 09:15:00,63.4,58.8,29.99,North,5,0.0,0.0,85,0.00,,CLR,0.00,VWS V14.00,2013-08-12 13:15:00,
2013-08-12 09:20:00,63.7,58.8,29.99,North,5,0.0,0.0,84,0.00,,CLR,0.00,VWS V14.00,2013-08-12 13:20:00,
2013-08-12 09:25:00,63.9,59.3,29.99,North,5,0.0,1.0,85,0.00,,CLR,0.00,VWS V14.00,2013-08-12 13:25:00,
2013-08-12 09:30:00,64.4,60.1,29.99,North,5,0.0,1.0,86,0.00,,CLR,0.00,VWS V14.00,2013-08-12 13:30:00,
2013-08-12 09:35:00,64.8,59.9,29.99,North,5,0.0,1.0,84,0.00,,CLR,0.00,VWS V14.00,2013-08-12 13:35:00,
2013-08-12 09:40:00,65.2,59.9,29.99,North,5,1.0,4.0,83,0.00,,CLR,0.00,VWS V14.00,2013-08-12 13:40:00,
2013-08-12 09:45:00,65.8,60.2,29.99,North,5,0.0,4.0,82,0.00,,CLR,0.00,VWS V14.00,2013-08-12 13:45:00,
2013-08-12 09:50:00,66.3,58.5,29.99,North,5,0.0,4.0,76,0.00,,CLR,0.00,VWS V14.00,2013-08-12 13:50:00,
2013-08-12 09:56:00,67.2,59.0,29.99,North,5,2.0,4.0,75,0.00,,CLR,0.00,VWS V14.00,2013-08-12 13:56:00,
2013-08-12 10:01:00,67.7,58.7,29.99,North,5,0.0,4.0,73,0.00,,CLR,0.00,VWS V14.00,2013-08-12 14:01:00,
2013-08-12 10:06:00,68.1,58.3,29.99,North,5,0.0,0.0,71,0.00,,CLR,0.00,VWS V14.00,2013-08-12 14:06:00,
2013-08-12 10:11:00,68.2,57.7,29.98,North,5,0.0,1.0,69,0.00,,CLR,0.00,VWS V14.00,2013-08-12 14:11:00,
2013-08-12 10:16:00,68.5,57.1,29.98,North,5,0.0,1.0,67,0.00,,CLR,0.00,VWS V14.00,2013-08-12 14:16:00,
2013-08-12 10:21:00,68.8,57.0,29.98,North,5,0.0,3.0,66,0.00,,CLR,0.00,VWS V14.00,2013-08-12 14:21:00,
2013-08-12 10:26:00,69.1,57.3,29.98,North,5,1.0,3.0,66,0.00,,CLR,0.00,VWS V14.00,2013-08-12 14:26:00,
2013-08-12 10:31:00,69.4,56.3,29.98,North,5,0.0,3.0,63,0.00,,CLR,0.00,VWS V14.00,2013-08-12 14:31:00,
2013-08-12 10:36:00,69.7,55.2,29.98,North,5,0.0,0.0,60,0.00,,CLR,0.00,VWS V14.00,2013-08-12 14:36:00,
2013-08-12 10:41:00,69.8,54.8,29.98,North,5,1.0,1.0,59,0.00,,CLR,0.00,VWS V14.00,2013-08-12 14:41:00,
2013-08-12 10:46:00,70.4,57.2,29.98,North,5,3.0,5.0,63,0.00,,CLR,0.00,VWS V14.00,2013-08-12 14:46:00,
2013-08-12 10:51:00,70.7,57.1,29.98,North,5,0.0,5.0,62,0.00,,CLR,0.00,VWS V14.00,2013-08-12 14:51:00,
2013-08-12 10:56:00,70.8,56.2,29.98,North,5,0.0,5.0,60,0.00,,CLR,0.00,VWS V14.00,2013-08-12 14:56:00,
2013-08-12 11:01:00,71.1,56.1,29.97,North,5,0.0,5.0,59,0.00,,CLR,0.00,VWS V14.00,2013-08-12 15:01:00,
2013-08-12 11:06:00,71.4,55.9,29.97,North,5,0.0,3.0,58,0.00,,CLR,0.00,VWS V14.00,2013-08-12 15:06:00,
2013-08-12 11:11:00,71.7,56.2,29.97,North,5,1.0,3.0,58,0.00,,FEW042,0.00,VWS V14.00,2013-08-12 15:11:00,
2013-08-12 11:16:00,72.0,55.0,29.97,North,5,0.0,3.0,55,0.00,,FEW042,0.00,VWS V14.00,2013-08-12 15:16:00,
2013-08-12 11:21:00,72.2,55.7,29.97,North,5,2.0,4.0,56,0.00,,FEW042,0.00,VWS V14.00,2013-08-12 15:21:00,
2013-08-12 11:26:00,72.4,55.3,29.97,North,5,0.0,5.0,55,0.00,,FEW042,0.00,VWS V14.00,2013-08-12 15:26:00,
2013-08-12 11:31:00,72.6,55.0,29.97,North,5,5.0,5.0,54,0.00,,FEW042,0.00,VWS V14.00,2013-08-12 15:31:00,
2013-08-12 11:36:00,72.8,56.7,29.96,North,5,3.0,5.0,57,0.00,,FEW042,0.00,VWS V14.00,2013-08-12 15:36:00,
2013-08-12 11:41:00,72.8,54.7,29.96,North,5,0.0,5.0,53,0.00,,FEW042,0.00,VWS V14.00,2013-08-12 15:41:00,
2013-08-12 11:46:00,73.0,54.4,29.96,North,5,0.0,5.0,52,0.00,,FEW042,0.00,VWS V14.00,2013-08-12 15:46:00,
2013-08-12 11:51:00,73.2,55.1,29.96,North,5,0.0,5.0,53,0.00,,FEW042,0.00,VWS V14.00,2013-08-12 15:51:00,
2013-08-12 11:56:00,73.6,56.5,29.96,North,5,0.0,5.0,55,0.00,,FEW042,0.00,VWS V14.00,2013-08-12 15:56:00,
2013-08-12 12:02:00,73.9,57.2,29.95,North,5,5.0,5.0,56,0.00,,FEW042,0.00,VWS V14.00,2013-08-12 16:02:00,
2013-08-12 12:07:00,73.9,56.2,29.95,North,5,4.0,6.0,54,0.00,,FEW042,0.00,VWS V14.00,2013-08-12 16:07:00,
2013-08-12 12:12:00,73.9,55.7,29.95,North,5,3.0,6.0,53,0.00,,BKN060,0.00,VWS V14.00,2013-08-12 16:12:00,
2013-08-12 12:17:00,74.1,55.9,29.95,North,5,1.0,6.0,53,0.00,,BKN060,0.00,VWS V14.00,2013-08-12 16:17:00,
2013-08-12 12:22:00,74.2,56.0,29.95,North,5,0.0,6.0,53,0.00,,BKN060,0.00,VWS V14.00,2013-08-12 16:22:00,
2013-08-12 12:27:00,74.4,55.7,29.95,North,5,2.0,6.0,52,0.00,,BKN060,0.00,VWS V14.00,2013-08-12 16:27:00,
2013-08-12 12:32:00,74.2,57.0,29.95,North,5,0.0,6.0,55,0.00,,BKN060,0.00,VWS V14.00,2013-08-12 16:32:00,
2013-08-12 12:37:00,74.3,56.1,29.95,North,5,3.0,4.0,53,0.00,,BKN060,0.00,VWS V14.00,2013-08-12 16:37:00,
2013-08-12 12:42:00,74.4,57.2,29.94,North,5,2.0,5.0,55,0.00,,BKN060,0.00,VWS V14.00,2013-08-12 16:42:00,
2013-08-12 12:47:00,74.6,55.8,29.94,North,5,0.0,6.0,52,0.00,,BKN060,0.00,VWS V14.00,2013-08-12 16:47:00,
2013-08-12 12:52:00,74.5,56.3,29.94,North,5,3.0,6.0,53,0.00,,BKN060,0.00,VWS V14.00,2013-08-12 16:52:00,
2013-08-12 12:57:00,74.5,56.8,29.94,North,5,0.0,6.0,54,0.00,,BKN060,0.00,VWS V14.00,2013-08-12 16:57:00,
2013-08-12 13:02:00,74.6,56.9,29.94,North,5,0.0,0.0,54,0.00,,BKN060,0.00,VWS V14.00,2013-08-12 17:02:00,
2013-08-12 13:07:00,74.8,56.5,29.94,North,5,0.0,3.0,53,0.00,,BKN060,0.00,VWS V14.00,2013-08-12 17:07:00,
2013-08-12 13:12:00,74.7,58.5,29.94,North,5,6.0,8.0,57,0.00,,FEW060,0.00,VWS V14.00,2013-08-12 17:12:00,
2013-08-12 13:17:00,74.8,57.6,29.94,North,5,0.0,8.0,55,0.00,,FEW060,0.00,VWS V14.00,2013-08-12 17:17:00,
2013-08-12 13:22:00,75.0,58.3,29.94,North,5,4.0,8.0,56,0.00,,FEW060,0.00,VWS V14.00,2013-08-12 17:22:00,
2013-08-12 13:27:00,75.4,59.1,29.94,North,5,3.0,8.0,57,0.00,,FEW060,0.00,VWS V14.00,2013-08-12 17:27:00,
2013-08-12 13:32:00,75.5,57.7,29.94,North,5,4.0,7.0,54,0.00,,FEW060,0.00,VWS V14.00,2013-08-12 17:32:00,
2013-08-12 13:37:00,75.3,57.0,29.93,North,5,3.0,7.0,53,0.00,,FEW060,0.00,VWS V14.00,2013-08-12 17:37:00,
2013-08-12 13:42:00,75.3,55.9,29.93,North,5,1.0,7.0,51,0.00,,FEW060,0.00,VWS V14.00,2013-08-12 17:42:00,
2013-08-12 13:47:00,75.5,58.2,29.93,North,5,0.0,7.0,55,0.00,,FEW060,0.00,VWS V14.00,2013-08-12 17:47:00,
2013-08-12 13:52:00,75.6,57.8,29.93,North,5,6.0,8.0,54,0.00,,FEW060,0.00,VWS V14.00,2013-08-12 17:52:00,
2013-08-12 13:57:00,75.7,56.3,29.93,North,5,0.0,8.0,51,0.00,,FEW060,0.00,VWS V14.00,2013-08-12 17:57:00,
2013-08-12 14:02:00,75.9,57.6,29.93,North,5,6.0,6.0,53,0.00,,FEW060,0.00,VWS V14.00,2013-08-12 18:02:00,
2013-08-12 14:07:00,75.8,59.0,29.93,North,5,1.0,6.0,56,0.00,,FEW060,0.00,VWS V14.00,2013-08-12 18:07:00,
2013-08-12 14:12:00,76.0,58.2,29.93,North,5,3.0,6.0,54,0.00,,SCT075,0.00,VWS V14.00,2013-08-12 18:12:00,
2013-08-12 14:17:00,76.2,58.4,29.93,North,5,4.0,6.0,54,0.00,,SCT075,0.00,VWS V14.00,2013-08-12 18:17:00,
2013-08-12 14:23:00,76.4,58.0,29.93,North,5,2.0,6.0,53,0.00,,SCT075,0.00,VWS V14.00,2013-08-12 18:23:00,
2013-08-12 14:28:00,76.7,59.3,29.93,North,5,3.0,6.0,55,0.00,,SCT075,0.00,VWS V14.00,2013-08-12 18:28:00,
2013-08-12 14:33:00,76.8,56.8,29.92,North,5,0.0,1.0,50,0.00,,SCT075,0.00,VWS V14.00,2013-08-12 18:33:00,
2013-08-12 14:38:00,77.0,57.5,29.92,North,5,1.0,7.0,51,0.00,,SCT075,0.00,VWS V14.00,2013-08-12 18:38:00,
2013-08-12 14:43:00,77.0,58.0,29.92,North,5,5.0,7.0,52,0.00,,SCT075,0.00,VWS V14.00,2013-08-12 18:43:00,
2013-08-12 14:51:00,76.6,57.1,29.92,North,5,0.0,7.0,51,0.00,,SCT075,0.00,VWS V14.00,2013-08-12 18:51:00,
2013-08-12 14:56:00,76.4,58.0,29.92,North,5,2.0,7.0,53,0.00,,SCT075,0.00,VWS V14.00,2013-08-12 18:56:00,
2013-08-12 15:01:00,76.6,58.7,29.92,North,5,6.0,8.0,54,0.00,,SCT075,0.00,VWS V14.00,2013-08-12 19:01:00,
2013-08-12 15:06:00,76.6,57.7,29.92,North,5,3.0,8.0,52,0.00,,SCT075,0.00,VWS V14.00,2013-08-12 19:06:00,
2013-08-12 15:11:00,76.5,57.0,29.92,North,5,3.0,8.0,51,0.00,,BKN070,0.00,VWS V14.00,2013-08-12 19:11:00,
2013-08-12 15:16:00,76.6,57.1,29.92,North,5,6.0,10.0,51,0.00,,BKN070,0.00,VWS V14.00,2013-08-12 19:16:00,
2013-08-12 15:21:00,76.7,58.8,29.91,North,5,7.0,11.0,54,0.00,,BKN070,0.00,VWS V14.00,2013-08-12 19:21:00,
2013-08-12 15:26:00,76.8,60.9,29.91,North,5,8.0,12.0,58,0.00,,BKN070,0.00,VWS V14.00,2013-08-12 19:26:00,
2013-08-12 15:31:00,76.8,59.9,29.91,North,5,6.0,12.0,56,0.00,,BKN070,0.00,VWS V14.00,2013-08-12 19:31:00,
2013-08-12 15:36:00,76.7,57.2,29.91,North,5,7.0,9.0,51,0.00,,BKN070,0.00,VWS V14.00,2013-08-12 19:36:00,
2013-08-12 15:41:00,76.9,58.0,29.91,North,5,8.0,11.0,52,0.00,,BKN070,0.00,VWS V14.00,2013-08-12 19:41:00,
2013-08-12 15:46:00,77.1,57.6,29.91,North,5,7.0,11.0,51,0.00,,BKN070,0.00,VWS V14.00,2013-08-12 19:46:00,
2013-08-12 15:52:00,77.2,58.8,29.91,North,5,6.0,11.0,53,0.00,,BKN070,0.00,VWS V14.00,2013-08-12 19:52:00,
2013-08-12 15:57:00,77.1,58.1,29.91,North,5,8.0,12.0,52,0.00,,BKN070,0.00,VWS V14.00,2013-08-12 19:57:00,
2013-08-12 16:02:00,77.1,57.0,29.91,North,5,6.0,12.0,50,0.00,,BKN070,0.00,VWS V14.00,2013-08-12 20:02:00,
2013-08-12 16:07:00,77.3,59.9,29.91,North,5,8.0,9.0,55,0.00,,BKN075,0.00,VWS V14.00,2013-08-12 20:07:00,
2013-08-12 16:12:00,76.9,59.5,29.91,North,5,9.0,13.0,55,0.00,,BKN075,0.00,VWS V14.00,2013-08-12 20:12:00,
2013-08-12 16:17:00,76.8,57.9,29.91,North,5,5.0,13.0,52,0.00,,BKN075,0.00,VWS V14.00,2013-08-12 20:17:00,
2013-08-12 16:22:00,76.7,58.3,29.91,North,5,7.0,13.0,53,0.00,,BKN075,0.00,VWS V14.00,2013-08-12 20:22:00,
2013-08-12 16:27:00,76.9,58.5,29.91,North,5,7.0,13.0,53,0.00,,BKN075,0.00,VWS V14.00,2013-08-12 20:27:00,
2013-08-12 16:32:00,76.7,58.3,29.91,North,5,6.0,8.0,53,0.00,,BKN075,0.00,VWS V14.00,2013-08-12 20:32:00,
2013-08-12 16:37:00,76.9,58.0,29.91,North,5,8.0,10.0,52,0.00,,BKN075,0.00,VWS V14.00,2013-08-12 20:37:00,
2013-08-12 16:42:00,76.9,59.0,29.91,North,5,12.0,12.0,54,0.00,,BKN075,0.00,VWS V14.00,2013-08-12 20:42:00,
2013-08-12 16:47:00,77.0,58.0,29.91,North,5,10.0,12.0,52,0.00,,BKN075,0.00,VWS V14.00,2013-08-12 20:47:00,
2013-08-12 16:52:00,76.9,58.0,29.91,North,5,8.0,13.0,52,0.00,,BKN075,0.00,VWS V14.00,2013-08-12 20:52:00,
2013-08-12 16:57:00,76.8,58.9,29.91,North,5,6.0,13.0,54,0.00,,BKN075,0.00,VWS V14.00,2013-08-12 20:57:00,
2013-08-12 17:02:00,76.6,59.8,29.91,North,5,7.0,10.0,56,0.00,,BKN075,0.00,VWS V14.00,2013-08-12 21:02:00,
2013-08-12 17:07:00,76.7,58.3,29.91,North,5,8.0,10.0,53,0.00,,SCT085,0.00,VWS V14.00,2013-08-12 21:07:00,
2013-08-12 17:12:00,76.8,59.4,29.91,North,5,8.0,13.0,55,0.00,,SCT085,0.00,VWS V14.00,2013-08-12 21:12:00,
2013-08-12 17:17:00,76.6,59.8,29.91,North,5,7.0,13.0,56,0.00,,SCT085,0.00,VWS V14.00,2013-08-12 21:17:00,
2013-08-12 17:22:00,76.5,59.7,29.91,North,5,3.0,13.0,56,0.00,,SCT085,0.00,VWS V14.00,2013-08-12 21:22:00,
2013-08-12 17:27:00,76.4,58.5,29.91,North,5,3.0,13.0,54,0.00,,SCT085,0.00,VWS V14.00,2013-08-12 21:27:00,
2013-08-12 17:32:00,76.5,59.2,29.91,North,5,3.0,3.0,55,0.00,,SCT085,0.00,VWS V14.00,2013-08-12 21:32:00,
2013-08-12 17:37:00,76.6,58.7,29.91,North,5,0.0,7.0,54,0.00,,SCT085,0.00,VWS V14.00,2013-08-12 21:37:00,
2013-08-12 17:42:00,76.6,58.2,29.91,North,5,2.0,7.0,53,0.00,,SCT085,0.00,VWS V14.00,2013-08-12 21:42:00,
2013-08-12 17:47:00,76.8,58.4,29.91,North,5,2.0,7.0,53,0.00,,SCT085,0.00,VWS V14.00,2013-08-12 21:47:00,
2013-08-12 17:53:00,76.6,58.7,29.91,North,5,6.0,8.0,54,0.00,,SCT085,0.00,VWS V14.00,2013-08-12 21:53:00,
2013-08-12 17:58:00,76.6,60.7,29.91,North,5,0.0,8.0,58,0.00,,SCT085,0.00,VWS V14.00,2013-08-12 21:58:00,
2013-08-12 18:03:00,76.7,60.8,29.91,North,5,3.0,4.0,58,0.00,,SCT085,0.00,VWS V14.00,2013-08-12 22:03:00,
2013-08-12 18:08:00,76.9,61.0,29.91,North,5,3.0,5.0,58,0.00,,SCT110,0.00,VWS V14.00,2013-08-12 22:08:00,
2013-08-12 18:13:00,76.9,60.5,29.90,North,5,0.0,5.0,57,0.00,,SCT110,0.00,VWS V14.00,2013-08-12 22:13:00,
2013-08-12 18:18:00,76.7,59.8,29.90,North,5,0.0,5.0,56,0.00,,SCT110,0.00,VWS V14.00,2013-08-12 22:18:00,
2013-08-12 18:23:00,76.5,60.2,29.90,North,5,0.0,5.0,57,0.00,,SCT110,0.00,VWS V14.00,2013-08-12 22:23:00,
2013-08-12 18:28:00,76.2,60.8,29.90,North,5,0.0,5.0,59,0.00,,SCT110,0.00,VWS V14.00,2013-08-12 22:28:00,
2013-08-12 18:33:00,76.2,59.4,29.90,North,5,0.0,2.0,56,0.00,,SCT110,0.00,VWS V14.00,2013-08-12 22:33:00,
2013-08-12 18:38:00,76.1,59.3,29.91,North,5,0.0,2.0,56,0.00,,SCT110,0.00,VWS V14.00,2013-08-12 22:38:00,
2013-08-12 18:43:00,76.0,59.2,29.90,North,5,0.0,2.0,56,0.00,,SCT110,0.00,VWS V14.00,2013-08-12 22:43:00,
2013-08-12 18:48:00,75.7,59.9,29.91,North,5,0.0,2.0,58,0.00,,SCT110,0.00,VWS V14.00,2013-08-12 22:48:00,
2013-08-12 18:53:00,75.3,60.0,29.91,North,5,0.0,2.0,59,0.00,,SCT110,0.00,VWS V14.00,2013-08-12 22:53:00,
2013-08-12 18:58:00,75.1,61.7,29.91,North,5,0.0,2.0,63,0.00,,SCT110,0.00,VWS V14.00,2013-08-12 22:58:00,
2013-08-12 19:03:00,74.8,62.7,29.91,North,5,0.0,0.0,66,0.00,,SCT110,0.00,VWS V14.00,2013-08-12 23:03:00,
2013-08-12 19:09:00,74.3,63.9,29.91,North,5,0.0,0.0,70,0.00,,SCT110,0.00,VWS V14.00,2013-08-12 23:09:00,
2013-08-12 19:14:00,73.8,62.2,29.91,North,5,0.0,0.0,67,0.00,,SCT080,0.00,VWS V14.00,2013-08-12 23:14:00,
2013-08-12 19:19:00,73.7,62.9,29.90,North,5,0.0,0.0,69,0.00,,SCT080,0.00,VWS V14.00,2013-08-12 23:19:00,
2013-08-12 19:24:00,73.3,62.1,29.90,North,5,0.0,0.0,68,0.00,,SCT080,0.00,VWS V14.00,2013-08-12 23:24:00,
2013-08-12 19:29:00,72.8,62.0,29.91,North,5,0.0,0.0,69,0.00,,SCT080,0.00,VWS V14.00,2013-08-12 23:29:00,
2013-08-12 19:34:00,72.6,63.5,29.91,North,5,0.0,0.0,73,0.00,,SCT080,0.00,VWS V14.00,2013-08-12 23:34:00,
2013-08-12 19:39:00,72.4,63.7,29.91,North,5,0.0,0.0,74,0.00,,SCT080,0.00,VWS V14.00,2013-08-12 23:39:00,
2013-08-12 19:44:00,71.9,62.8,29.91,North,5,0.0,0.0,73,0.00,,SCT080,0.00,VWS V14.00,2013-08-12 23:44:00,
2013-08-12 19:49:00,71.3,63.3,29.91,North,5,0.0,0.0,76,0.00,,SCT080,0.00,VWS V14.00,2013-08-12 23:49:00,
2013-08-12 19:54:00,70.9,63.3,29.91,North,5,0.0,0.0,77,0.00,,SCT080,0.00,VWS V14.00,2013-08-12 23:54:00,
2013-08-12 19:59:00,70.5,63.7,29.91,North,5,0.0,0.0,79,0.00,,SCT080,0.00,VWS V14.00,2013-08-12 23:59:00,
2013-08-12 20:04:00,70.1,63.7,29.91,North,5,0.0,0.0,80,0.00,,SCT080,0.00,VWS V14.00,2013-08-13 00:04:00,
2013-08-12 20:09:00,69.7,64.0,29.91,North,5,0.0,1.0,82,0.00,,SCT080,0.00,VWS V14.00,2013-08-13 00:09:00,
2013-08-12 20:14:00,69.4,63.3,29.91,North,5,0.0,1.0,81,0.00,,FEW080,0.00,VWS V14.00,2013-08-13 00:14:00,
2013-08-12 20:19:00,69.1,63.4,29.91,North,5,0.0,1.0,82,0.00,,FEW080,0.00,VWS V14.00,2013-08-13 00:19:00,
2013-08-12 20:24:00,68.8,63.4,29.91,North,5,0.0,1.0,83,0.00,,FEW080,0.00,VWS V14.00,2013-08-13 00:24:00,
2013-08-12 20:29:00,68.5,63.1,29.91,North,5,0.0,1.0,83,0.00,,FEW080,0.00,VWS V14.00,2013-08-13 00:29:00,
2013-08-12 20:34:00,68.3,63.3,29.91,North,5,0.0,0.0,84,0.00,,FEW080,0.00,VWS V14.00,2013-08-13 00:34:00,
2013-08-12 20:39:00,68.1,63.1,29.91,North,5,0.0,0.0,84,0.00,,FEW080,0.00,VWS V14.00,2013-08-13 00:39:00,
2013-08-12 20:44:00,67.9,63.2,29.92,North,5,0.0,0.0,85,0.00,,FEW080,0.00,VWS V14.00,2013-08-13 00:44:00,
2013-08-12 20:49:00,67.7,63.0,29.92,North,5,0.0,0.0,85,0.00,,FEW080,0.00,VWS V14.00,2013-08-13 00:49:00,
2013-08-12 20:54:00,67.3,63.0,29.92,North,5,0.0,0.0,86,0.00,,FEW080,0.00,VWS V14.00,2013-08-13 00:54:00,
2013-08-12 20:59:00,67.1,62.8,29.92,North,5,0.0,0.0,86,0.00,,FEW080,0.00,VWS V14.00,2013-08-13 00:59:00,
2013-08-12 21:04:00,66.8,62.8,29.92,North,5,0.0,0.0,87,0.00,,FEW080,0.00,VWS V14.00,2013-08-13 01:04:00,
2013-08-12 21:09:00,66.7,63.0,29.92,North,5,0.0,0.0,88,0.00,,FEW080,0.00,VWS V14.00,2013-08-13 01:09:00,
2013-08-12 21:14:00,66.6,62.9,29.92,North,5,0.0,0.0,88,0.00,,CLR,0.00,VWS V14.00,2013-08-13 01:14:00,
2013-08-12 21:19:00,66.4,63.1,29.93,North,5,0.0,0.0,89,0.00,,CLR,0.00,VWS V14.00,2013-08-13 01:19:00,
2013-08-12 21:24:00,66.6,63.6,29.93,North,5,0.0,3.0,90,0.00,,CLR,0.00,VWS V14.00,2013-08-13 01:24:00,
2013-08-12 21:29:00,66.7,63.7,29.93,North,5,0.0,3.0,90,0.00,,CLR,0.00,VWS V14.00,2013-08-13 01:29:00,
2013-08-12 21:34:00,66.7,63.7,29.93,North,5,0.0,0.0,90,0.00,,CLR,0.00,VWS V14.00,2013-08-13 01:34:00,
2013-08-12 21:39:00,66.7,63.7,29.93,North,5,0.0,2.0,90,0.00,,CLR,0.00,VWS V14.00,2013-08-13 01:39:00,
2013-08-12 21:45:00,66.5,63.5,29.93,North,5,0.0,2.0,90,0.00,,CLR,0.00,VWS V14.00,2013-08-13 01:45:00,
2013-08-12 21:50:00,66.3,63.6,29.93,North,5,0.0,2.0,91,0.00,,CLR,0.00,VWS V14.00,2013-08-13 01:50:00,
2013-08-12 21:55:00,66.0,63.0,29.92,North,5,0.0,2.0,90,0.00,,CLR,0.00,VWS V14.00,2013-08-13 01:55:00,
2013-08-12 22:00:00,65.8,62.8,29.92,North,5,0.0,2.0,90,0.00,,CLR,0.00,VWS V14.00,2013-08-13 02:00:00,
2013-08-12 22:05:00,65.5,62.5,29.92,North,5,0.0,0.0,90,0.00,,CLR,0.00,VWS V14.00,2013-08-13 02:05:00,
2013-08-12 22:10:00,65.3,62.3,29.92,North,5,0.0,0.0,90,0.00,,CLR,0.00,VWS V14.00,2013-08-13 02:10:00,
2013-08-12 22:15:00,65.1,62.1,29.92,North,5,0.0,0.0,90,0.00,,CLR,0.00,VWS V14.00,2013-08-13 02:15:00,
2013-08-12 22:20:00,64.9,61.9,29.92,North,5,0.0,0.0,90,0.00,,CLR,0.00,VWS V14.00,2013-08-13 02:20:00,
2013-08-12 22:25:00,64.9,62.5,29.92,North,5,0.0,0.0,92,0.00,,CLR,0.00,VWS V14.00,2013-08-13 02:25:00,
2013-08-12 22:30:00,64.7,62.0,29.92,North,5,0.0,0.0,91,0.00,,CLR,0.00,VWS V14.00,2013-08-13 02:30:00,
2013-08-12 22:35:00,64.6,61.9,29.92,North,5,0.0,0.0,91,0.00,,CLR,0.00,VWS V14.00,2013-08-13 02:35:00,
2013-08-12 22:40:00,64.6,61.9,29.92,North,5,0.0,0.0,91,0.00,,CLR,0.00,VWS V14.00,2013-08-13 02:40:00,
2013-08-12 22:45:00,64.5,61.8,29.92,North,5,0.0,0.0,91,0.00,,CLR,0.00,VWS V14.00,2013-08-13 02:45:00,
2013-08-12 22:50:00,64.4,61.7,29.91,North,5,0.0,0.0,91,0.00,,CLR,0.00,VWS V14.00,2013-08-13 02:50:00,
2013-08-12 22:55:00,64.3,61.6,29.91,North,5,0.0,0.0,91,0.00,,CLR,0.00,VWS V14.00,2013-08-13 02:55:00,
2013-08-12 23:00:00,64.3,61.9,29.92,North,5,0.0,0.0,92,0.00,,CLR,0.00,VWS V14.00,2013-08-13 03:00:00,
2013-08-12 23:05:00,64.2,61.5,29.92,North,5,0.0,0.0,91,0.00,,CLR,0.00,VWS V14.00,2013-08-13 03:05:00,
2013-08-12 23:10:00,64.1,61.7,29.91,North,5,0.0,0.0,92,0.00,,BKN120,0.00,VWS V14.00,2013-08-13 03:10:00,
2013-08-12 23:15:00,64.1,61.7,29.92,North,5,0.0,1.0,92,0.00,,BKN120,0.00,VWS V14.00,2013-08-13 03:15:00,
2013-08-12 23:20:00,64.3,62.2,29.92,North,5,0.0,1.0,93,0.00,,BKN120,0.00,VWS V14.00,2013-08-13 03:20:00,
2013-08-12 23:25:00,64.2,61.8,29.92,North,5,0.0,1.0,92,0.00,,BKN120,0.00,VWS V14.00,2013-08-13 03:25:00,
2013-08-12 23:30:00,64.2,62.1,29.91,North,5,0.0,1.0,93,0.00,,BKN120,0.00,VWS V14.00,2013-08-13 03:30:00,
2013-08-12 23:35:00,64.4,62.3,29.91,North,5,0.0,0.0,93,0.00,,BKN120,0.00,VWS V14.00,2013-08-13 03:35:00,
2013-08-12 23:40:00,64.3,61.9,29.91,North,5,0.0,0.0,92,0.00,,BKN120,0.00,VWS V14.00,2013-08-13 03:40:00,
2013-08-12 23:45:00,64.0,61.6,29.91,North,5,0.0,0.0,92,0.00,,BKN120,0.00,VWS V14.00,2013-08-13 03:45:00,
2013-08-12 23:53:00,63.7,61.3,29.91,North,5,0.0,0.0,92,0.00,,BKN120,0.00,VWS V14.00,2013-08-13 03:53:00,
2013-08-12 23:59:00,63.6,61.2,29.91,North,5,0.0,0.0,92,0.00,,BKN120,0.00,VWS V14.00,2013-08-13 03:59:00,